createdAt,value
2023-05-03T00:00:51.766Z,33.58
2023-05-03T00:05:55.997Z,33.52
2023-05-03T00:11:00.902Z,33.56
2023-05-03T00:16:03.864Z,33.71
2023-05-03T00:21:08.060Z,33.70
2023-05-03T00:26:11.827Z,33.94
2023-05-03T00:31:14.663Z,33.87
2023-05-03T00:36:21.412Z,33.94
2023-05-03T00:41:25.562Z,33.78
2023-05-03T00:46:28.742Z,34.02
2023-05-03T00:51:33.172Z,33.88
2023-05-03T00:56:44.282Z,33.70
2023-05-03T01:01:54.251Z,33.75
2023-05-03T01:07:08.250Z,34.09
2023-05-03T01:12:21.861Z,33.93
2023-05-03T01:17:29.815Z,34.00
2023-05-03T01:22:40.784Z,34.21
2023-05-03T01:27:45.523Z,34.14
2023-05-03T01:32:54.036Z,33.96
2023-05-03T01:37:58.194Z,34.33
2023-05-03T01:43:03.158Z,34.08
2023-05-03T01:48:10.795Z,34.18
2023-05-03T01:53:13.667Z,34.08
2023-05-03T01:58:17.860Z,34.07
2023-05-03T02:03:22.476Z,34.17
2023-05-03T02:08:25.338Z,34.29
2023-05-03T02:13:29.541Z,34.31
2023-05-03T02:18:33.693Z,34.31
2023-05-03T02:23:37.395Z,34.21
2023-05-03T02:28:42.601Z,34.11
2023-05-03T02:33:45.988Z,34.24
2023-05-03T02:38:48.801Z,34.22
2023-05-03T02:43:52.997Z,34.22
2023-05-03T02:48:55.854Z,34.40
2023-05-03T02:53:58.645Z,34.38
2023-05-03T02:59:02.841Z,34.46
2023-05-03T03:04:06.654Z,34.23
2023-05-03T03:09:09.603Z,34.10
2023-05-03T03:14:13.728Z,34.16
2023-05-03T03:19:16.538Z,34.30
2023-05-03T03:24:19.368Z,34.47
2023-05-03T03:29:23.650Z,34.45
2023-05-03T03:34:26.517Z,34.37
2023-05-03T03:39:29.395Z,34.42
2023-05-03T03:44:33.535Z,34.35
2023-05-03T03:49:36.399Z,34.60
2023-05-03T03:54:39.217Z,34.49
2023-05-03T03:59:43.399Z,34.52
2023-05-03T04:04:46.782Z,34.50
2023-05-03T04:09:49.613Z,34.42
2023-05-03T04:14:53.918Z,34.39
2023-05-03T04:19:56.941Z,34.39
2023-05-03T04:25:01.204Z,34.47
2023-05-03T04:30:06.555Z,34.36
2023-05-03T04:35:13.675Z,34.35
2023-05-03T04:40:17.314Z,34.38
2023-05-03T04:45:21.895Z,34.42
2023-05-03T04:50:24.725Z,34.42
2023-05-03T04:55:28.876Z,34.28
2023-05-03T05:00:34.092Z,34.40
2023-05-03T05:05:38.299Z,34.09
2023-05-03T05:10:42.426Z,34.07
2023-05-03T05:15:46.620Z,34.07
2023-05-03T05:20:49.509Z,34.17
2023-05-03T05:25:53.975Z,33.98
2023-05-03T05:30:58.134Z,34.15
2023-05-03T05:36:01.004Z,34.14
2023-05-03T05:41:06.406Z,34.02
2023-05-03T05:46:10.711Z,34.13
2023-05-03T05:51:13.514Z,33.99
2023-05-03T05:56:16.700Z,34.01
2023-05-03T06:01:20.982Z,33.96
2023-05-03T06:06:24.163Z,33.91
2023-05-03T06:11:27.684Z,34.09
2023-05-03T06:16:32.160Z,34.05
2023-05-03T06:21:36.370Z,33.89
2023-05-03T06:26:39.247Z,34.00
2023-05-03T06:31:43.601Z,34.03
2023-05-03T06:36:46.544Z,34.09
2023-05-03T06:41:49.650Z,34.22
2023-05-03T06:46:53.879Z,34.18
2023-05-03T06:51:56.842Z,34.01
2023-05-03T06:56:59.719Z,34.21
2023-05-03T07:02:04.052Z,34.24
2023-05-03T07:07:07.286Z,33.97
2023-05-03T07:12:10.262Z,34.64
2023-05-03T07:17:14.407Z,35.04
2023-05-03T07:22:18.872Z,35.49
2023-05-03T07:27:21.857Z,35.36
2023-05-03T07:32:26.212Z,35.37
2023-05-03T07:37:29.165Z,35.29
2023-05-03T07:42:32.476Z,36.03
2023-05-03T07:47:38.557Z,35.48
2023-05-03T07:52:43.382Z,35.60
2023-05-03T07:57:46.377Z,35.70
2023-05-03T08:02:50.633Z,35.30
2023-05-03T08:07:53.702Z,35.89
2023-05-03T08:12:56.489Z,35.53
2023-05-03T08:18:01.102Z,35.67
2023-05-03T08:23:04.106Z,35.60
2023-05-03T08:28:08.281Z,35.50
2023-05-03T08:33:12.439Z,35.79
2023-05-03T08:38:15.371Z,35.61
2023-05-03T08:43:21.296Z,35.68
2023-05-03T08:48:25.587Z,35.43
2023-05-03T08:53:28.423Z,35.23
2023-05-03T08:58:31.420Z,34.79
2023-05-03T09:03:38.606Z,34.86
2023-05-03T09:08:44.441Z,34.70
2023-05-03T09:13:47.238Z,35.28
2023-05-03T09:18:59.319Z,35.42
2023-05-03T09:24:04.038Z,34.91
2023-05-03T09:29:07.225Z,35.02
2023-05-03T09:34:23.471Z,35.11
2023-05-03T09:39:26.511Z,35.42
2023-05-03T09:44:42.850Z,35.16
2023-05-03T09:49:47.082Z,35.25
2023-05-03T09:54:51.513Z,34.90
2023-05-03T09:59:54.378Z,34.54
2023-05-03T10:04:59.557Z,34.93
2023-05-03T10:10:02.469Z,34.56
2023-05-03T10:15:07.257Z,34.97
2023-05-03T10:20:22.960Z,34.38
2023-05-03T10:25:25.815Z,34.42
2023-05-03T10:30:31.177Z,34.33
2023-05-03T10:35:35.312Z,34.37
2023-05-03T10:40:43.159Z,34.84
2023-05-03T10:45:48.380Z,34.95
2023-05-03T10:50:53.208Z,34.99
2023-05-03T10:56:03.304Z,35.04
2023-05-03T11:01:06.899Z,34.67
2023-05-03T11:06:11.458Z,34.56
2023-05-03T11:11:14.343Z,34.48
2023-05-03T11:16:17.173Z,34.75
2023-05-03T11:21:21.923Z,34.46
2023-05-03T11:26:26.273Z,34.32
2023-05-03T11:31:29.566Z,33.90
2023-05-03T11:36:34.099Z,34.21
2023-05-03T11:41:37.159Z,34.50
2023-05-03T11:46:40.513Z,34.37
2023-05-03T11:51:47.870Z,34.48
2023-05-03T11:56:52.973Z,34.24
2023-05-03T12:01:55.957Z,34.23
2023-05-03T12:07:00.867Z,33.91
2023-05-03T12:12:06.207Z,34.18
2023-05-03T12:17:11.370Z,33.93
2023-05-03T12:22:26.333Z,33.63
2023-05-03T12:27:32.845Z,33.84
2023-05-03T12:32:38.884Z,33.19
2023-05-03T12:37:43.928Z,33.48
2023-05-03T12:42:46.944Z,33.51
2023-05-03T12:47:50.328Z,33.12
2023-05-03T12:52:54.858Z,32.66
2023-05-03T12:58:26.803Z,33.27
2023-05-03T13:03:23.308Z,33.42
2023-05-03T13:08:34.943Z,33.15
2023-05-03T13:13:38.190Z,32.50
2023-05-03T13:18:42.877Z,32.49
2023-05-03T13:23:48.051Z,32.82
2023-05-03T13:28:51.125Z,32.79
2023-05-03T13:33:55.112Z,32.47
2023-05-03T13:38:59.264Z,31.95
2023-05-03T13:44:02.109Z,32.31
2023-05-03T13:49:07.355Z,32.08
2023-05-03T13:54:11.698Z,32.18
2023-05-03T13:59:15.025Z,32.00
2023-05-03T14:04:18.071Z,32.71
2023-05-03T14:09:22.345Z,32.56
2023-05-03T14:14:27.800Z,32.32
2023-05-03T14:19:30.753Z,31.63
2023-05-03T14:24:35.251Z,32.02
2023-05-03T14:29:38.066Z,32.34
2023-05-03T14:34:40.917Z,31.12
2023-05-03T14:39:45.296Z,31.91
2023-05-03T14:44:48.083Z,32.20
2023-05-03T14:49:51.887Z,31.25
2023-05-03T14:54:56.091Z,30.96
2023-05-03T15:00:02.090Z,30.70
2023-05-03T15:05:05.614Z,30.20
2023-05-03T15:10:10.412Z,30.41
2023-05-03T15:15:13.683Z,29.49
2023-05-03T15:20:16.872Z,28.09
2023-05-03T15:25:23.403Z,24.57
2023-05-03T15:30:26.274Z,25.22
2023-05-03T15:35:29.087Z,25.68
2023-05-03T15:40:33.335Z,25.59
2023-05-03T15:45:36.244Z,26.11
2023-05-03T15:50:39.038Z,25.65
2023-05-03T15:55:43.211Z,26.94
2023-05-03T16:00:46.817Z,25.01
2023-05-03T16:05:49.713Z,24.64
2023-05-03T16:10:53.983Z,24.83
2023-05-03T16:15:56.880Z,25.02
2023-05-03T16:20:59.747Z,22.82
2023-05-03T16:26:12.292Z,21.12
2023-05-03T16:31:16.924Z,21.49
2023-05-03T16:36:19.879Z,22.03
2023-05-03T16:41:24.243Z,22.63
2023-05-03T16:46:27.305Z,23.43
2023-05-03T16:51:30.188Z,23.10
2023-05-03T16:56:34.660Z,23.35
2023-05-03T17:01:37.575Z,22.77
2023-05-03T17:06:40.512Z,23.26
2023-05-03T17:11:44.724Z,22.99
2023-05-03T17:16:49.044Z,23.19
2023-05-03T17:21:52.052Z,23.13
2023-05-03T17:26:56.719Z,24.14
2023-05-03T17:31:59.594Z,23.79
2023-05-03T17:37:02.560Z,24.08
2023-05-03T17:42:08.032Z,25.38
2023-05-03T17:47:11.088Z,25.52
2023-05-03T17:52:13.883Z,26.21
2023-05-03T17:57:17.997Z,27.06
2023-05-03T18:02:21.814Z,27.44
2023-05-03T18:07:24.651Z,28.05
2023-05-03T18:12:29.472Z,28.27
2023-05-03T18:17:32.999Z,28.52
2023-05-03T18:22:36.035Z,29.03
2023-05-03T18:27:40.242Z,29.13
2023-05-03T18:32:43.277Z,30.09
2023-05-03T18:37:46.186Z,30.50
2023-05-03T18:42:50.348Z,30.21
2023-05-03T18:47:53.224Z,30.85
2023-05-03T18:52:56.007Z,32.10
2023-05-03T18:58:00.553Z,31.89
2023-05-03T19:03:04.286Z,32.91
2023-05-03T19:08:07.158Z,32.92
2023-05-03T19:13:11.705Z,33.17
2023-05-03T19:18:16.552Z,33.42
2023-05-03T19:23:19.592Z,32.76
2023-05-03T19:28:23.938Z,33.31
2023-05-03T19:33:26.832Z,32.94
2023-05-03T19:38:30.012Z,33.40
2023-05-03T19:43:34.602Z,33.02
2023-05-03T19:48:37.421Z,33.82
2023-05-03T19:53:40.207Z,34.49
2023-05-03T19:58:44.352Z,35.36
2023-05-03T20:03:47.344Z,35.98
2023-05-03T20:08:51.054Z,36.07
2023-05-03T20:13:55.255Z,36.02
2023-05-03T20:18:58.098Z,35.95
2023-05-03T20:24:02.917Z,36.40
2023-05-03T20:29:07.097Z,36.54
2023-05-03T20:34:09.909Z,36.44
2023-05-03T20:39:12.757Z,36.51
2023-05-03T20:44:16.926Z,36.80
2023-05-03T20:49:19.782Z,36.86
2023-05-03T20:54:22.637Z,36.68
2023-05-03T20:59:27.639Z,37.14
2023-05-03T21:04:30.775Z,37.12
2023-05-03T21:09:33.635Z,38.21
2023-05-03T21:14:38.410Z,38.35
2023-05-03T21:19:41.298Z,38.69
2023-05-03T21:24:45.164Z,38.93
2023-05-03T21:29:49.551Z,39.22
2023-05-03T21:34:53.638Z,39.56
2023-05-03T21:40:05.402Z,39.82
2023-05-03T21:45:11.305Z,39.64
2023-05-03T21:50:14.229Z,39.79
2023-05-03T21:55:17.030Z,39.53
2023-05-03T22:00:21.508Z,39.74
2023-05-03T22:05:24.520Z,39.65
2023-05-03T22:10:27.494Z,39.56
2023-05-03T22:15:33.912Z,39.89
2023-05-03T22:20:36.732Z,39.93
2023-05-03T22:25:39.521Z,39.79
2023-05-03T22:30:43.742Z,39.80
2023-05-03T22:35:46.870Z,39.87
2023-05-03T22:40:49.693Z,40.09
2023-05-03T22:45:55.466Z,40.19
2023-05-03T22:50:58.405Z,40.32
2023-05-03T22:56:04.312Z,40.63
2023-05-03T23:01:11.592Z,40.17
2023-05-03T23:06:15.110Z,40.70
2023-05-03T23:11:17.962Z,40.63
2023-05-03T23:16:22.343Z,40.82
2023-05-03T23:21:25.298Z,40.57
2023-05-03T23:26:29.035Z,40.58
2023-05-03T23:31:34.970Z,40.67
2023-05-03T23:36:39.236Z,40.74
2023-05-03T23:41:42.170Z,40.62
2023-05-03T23:46:46.554Z,40.77
2023-05-03T23:51:49.350Z,41.04
2023-05-03T23:56:52.571Z,40.88
